Latest Coastal Weather Observations for Gabo Island

IDV60701

Issued at 6:12 pm EST Saturday 20 April 2024 (issued every 10 minutes, with the page automatically refreshed every 10 minutes)

About coastal observations | Map of coastal stations | Coastal observations for VIC | Marine services | Other Formats
Station Details ID: 084016 Name: GABO ISLAND LIGHTHOUSE Lat: -37.57 Lon: 149.92 Height: 15.0 m
Data from the previous 72 hours. | See also: Recent months at Gabo Island
Date/Time
EST
Wind Sea
Height
m
Swell Vis
km
Cloud Weather Temp
°C
Press
MSL
hPa
Rain since
9am
mm
Dir  Spd
kts
Gust
kts
Height
m
Period
s
Dir
20/06:00pm SSW 11 14 - - - - - - - 16.3 1029.4 0.0
20/05:30pm SSW 12 16 - - - - - - - 16.4 1029.1 0.0
20/05:00pm SSW 13 15 - - - - - - - 16.7 1028.8 0.0
20/04:30pm SSW 14 17 - - - - - - - 16.8 1028.5 0.0
20/04:00pm SSW 15 18 - - - - - - - 17.1 1028.5 0.0
20/03:30pm SW 17 20 - - - - - - - 17.3 1028.4 0.0
20/03:00pm SW 17 21 2 1.5 8 S 40 Partly cloudy Fine 17.7 1028.5 0.0
20/02:30pm SSW 17 19 - - - - - - - 17.5 1028.4 0.0
20/02:00pm SSW 17 21 - - - - - - - 17.3 1028.3 0.0
20/01:30pm SSW 15 18 - - - - - - - 17.7 1028.3 0.0
20/01:00pm SSW 15 19 - - - - - - - 17.8 1028.4 0.0
20/12:30pm SSW 14 17 - - - - - - - 17.8 1028.6 0.0
20/12:00pm SSW 15 18 - - - - - - - 19.0 1028.9 0.0
20/11:30am SSW 17 20 - - - - - - - 17.8 1029.0 0.0
20/11:00am SSW 16 19 - - - - - - - 17.6 1028.9 0.0
20/10:30am SW 17 21 - - - - - - - 17.3 1028.8 0.0
20/10:00am SSW 16 19 - - - - - - - 17.5 1028.7 0.0
20/09:30am SSW 14 16 - - - - - - - 17.4 1028.5 0.0
20/09:00am SSW 15 17 2 1.6 8 S 30 Mostly cloudy Fine 17.1 1028.4 0.8
20/08:30am SSW 15 19 - - - - - - - 16.8 1028.3 0.8
20/08:00am S 17 24 - - - - - - - 16.8 1028.0 0.8
20/07:30am SSW 19 23 - - - - - - - 16.8 1027.7 0.8
20/07:00am SSW 17 20 - - - - - - - 16.9 1027.2 0.8
20/06:30am SSW 18 22 - - - - - - - 16.7 1026.9 0.8
20/06:00am S 18 21 - - - - - - - 16.7 1026.6 0.8
20/05:30am S 19 23 - - - - - - - 16.6 1026.2 0.8
20/05:00am S 19 23 - - - - - - - 16.9 1026.1 0.8
20/04:30am S 18 22 - - - - - - - 16.9 1025.8 0.8
20/04:00am S 19 23 - - - - - - - 16.7 1025.7 0.8
20/03:30am S 19 23 - - - - - - - 16.8 1025.3 0.8
20/03:00am S 18 22 - - - - - - - 16.9 1025.2 0.8
20/02:30am S 19 22 - - - - - - - 16.5 1025.2 0.8
20/02:00am S 19 25 - - - - - - - 16.9 1025.2 0.8
20/01:30am S 17 21 - - - - - - - 16.7 1025.2 0.8
20/01:00am S 18 22 - - - - - - - 16.7 1025.2 0.8
20/12:30am S 19 22 - - - - - - - 16.5 1025.1 0.8
20/12:00am S 17 21 - - - - - - - 16.7 1025.0 0.8
 
Date/Time
EST
Wind Sea
Height
m
Swell Vis
km
Cloud Weather Temp
°C
Press
MSL
hPa
Rain since
9am
mm
Dir  Spd
kts
Gust
kts
Height
m
Period
s
Dir
19/11:30pm S 16 21 - - - - - - - 16.6 1025.0 0.8
19/11:00pm S 19 22 - - - - - - - 16.7 1024.9 0.8
19/10:30pm S 19 23 - - - - - - - 17.0 1024.9 0.8
19/10:00pm S 18 23 - - - - - - - 17.1 1024.9 0.8
19/09:30pm S 18 23 - - - - - - - 17.0 1024.8 0.8
19/09:00pm S 18 22 2 1.4 9 S 30 Mostly clear Fine 17.1 1024.5 0.8
19/08:30pm S 18 23 - - - - - - - 17.0 1024.2 0.8
19/08:00pm S 20 24 - - - - - - - 17.1 1023.8 0.8
19/07:30pm S 19 24 - - - - - - - 17.1 1023.5 0.8
19/07:00pm S 19 22 - - - - - - - 17.0 1023.1 0.8
19/06:30pm S 20 24 - - - - - - - 16.9 1022.7 0.8
19/06:00pm S 20 24 - - - - - - - 16.8 1022.2 0.8
19/05:30pm S 18 25 - - - - - - - 16.7 1021.6 0.8
19/05:00pm S 21 27 - - - - - - - 16.0 1021.4 0.4
19/04:30pm S 19 21 - - - - - - - 17.2 1020.8 0.2
19/04:00pm S 18 22 - - - - - - - 16.6 1020.4 0.2
19/03:30pm SSW 18 23 - - - - - - - 16.9 1020.2 0.2
19/03:00pm SW 16 23 2 1.4 9 S 30 Mostly cloudy Drizzle 16.6 1019.8 0.0
19/02:58pm SW 15 21 - - - - - - - 16.5 1019.8 0.0
19/02:30pm SW 21 26 - - - - - - - 16.8 1019.6 0.0
19/02:00pm SW 20 24 - - - - - - - 17.9 1019.2 0.0
19/01:30pm WSW 17 23 - - - - - - - 17.8 1018.9 0.0
19/01:00pm WSW 17 21 - - - - - - - 17.8 1018.9 0.0
19/12:30pm WSW 21 26 - - - - - - - 16.7 1018.9 0.0
19/12:00pm WSW 25 29 - - - - - - - 16.5 1018.9 0.0
19/11:30am SW 21 28 - - - - - - - 16.9 1018.8 0.0
19/11:15am SW 19 30 - - - - - - - 17.9 1018.6 0.0
19/11:00am WSW 16 21 - - - - - - - 18.2 1018.5 0.0
19/10:30am WSW 17 22 - - - - - - - 17.7 1018.4 0.0
19/10:00am WSW 17 21 - - - - - - - 16.6 1018.1 0.0
19/09:30am W 16 20 - - - - - - - 16.2 1018.0 0.0
19/09:00am W 17 21 2 1.4 8 SW 40 Partly cloudy Fine 15.6 1017.7 0.6
19/08:30am W 18 23 - - - - - - - 15.0 1017.3 0.6
19/08:00am WSW 20 26 - - - - - - - 15.0 1017.0 0.6
19/07:30am WSW 21 27 - - - - - - - 14.3 1016.6 0.6
19/07:00am WSW 21 26 - - - - - - - 14.1 1016.2 0.0
19/06:30am WSW 22 27 - - - - - - - 14.2 1015.7 0.0
19/06:00am WSW 23 29 - - - - - - - 14.6 1015.1 0.0
19/05:30am WSW 22 28 - - - - - - - 14.6 1014.7 0.0
19/05:00am WSW 19 25 - - - - - - - 15.1 1014.3 0.0
19/04:30am W 18 24 - - - - - - - 15.2 1014.2 0.0
19/04:00am W 17 20 - - - - - - - 15.5 1014.0 0.0
19/03:30am W 19 24 - - - - - - - 15.8 1014.0 0.0
19/03:00am W 21 25 2 1.4 8 SW 30 Partly cloudy Fine 15.7 1013.8 0.0
19/02:30am W 14 18 - - - - - - - 15.2 1014.1 0.0
19/02:00am W 14 18 - - - - - - - 14.9 1014.3 0.0
19/01:30am W 12 17 - - - - - - - 15.1 1014.5 0.0
19/01:00am W 12 16 - - - - - - - 15.5 1014.6 0.0
19/12:30am WNW 10 13 - - - - - - - 14.8 1014.6 0.0
19/12:00am W 13 17 - - - - - - - 15.2 1014.6 0.0
 
Date/Time
EST
Wind Sea
Height
m
Swell Vis
km
Cloud Weather Temp
°C
Press
MSL
hPa
Rain since
9am
mm
Dir  Spd
kts
Gust
kts
Height
m
Period
s
Dir
18/11:30pm W 13 17 - - - - - - - 15.2 1014.9 0.0
18/11:00pm W 17 22 - - - - - - - 15.5 1014.9 0.0
18/10:30pm W 17 22 - - - - - - - 15.6 1015.2 0.0
18/10:00pm W 15 19 - - - - - - - 15.4 1015.4 0.0
18/09:30pm W 16 19 - - - - - - - 15.3 1015.5 0.0
18/09:00pm W 17 21 2 1.3 8 SW 35 Mostly cloudy Fine 15.4 1015.5 0.0
18/08:30pm WSW 17 21 - - - - - - - 15.5 1015.3 0.0
18/08:00pm W 16 19 - - - - - - - 15.3 1015.4 0.0
18/07:30pm WSW 16 19 - - - - - - - 15.5 1015.5 0.0
18/07:00pm WSW 17 20 - - - - - - - 15.8 1015.6 0.0
18/06:30pm WSW 16 21 - - - - - - - 15.8 1015.4 0.0
18/06:00pm WSW 16 21 - - - - - - - 15.9 1015.3 0.0
18/05:30pm WSW 18 22 - - - - - - - 16.1 1015.3 0.0
18/05:00pm WSW 18 22 - - - - - - - 16.3 1015.3 0.0
18/04:30pm WSW 19 24 - - - - - - - 16.5 1015.2 0.0
18/04:00pm SW 22 27 - - - - - - - 17.0 1015.4 0.0
18/03:30pm WSW 23 29 - - - - - - - 17.1 1015.3 0.0
18/03:00pm WSW 20 26 2 1.3 9 S 35 Partly cloudy Fine 17.6 1015.5 0.0
18/02:30pm WSW 21 27 - - - - - - - 17.3 1015.9 0.0
18/02:00pm WSW 22 27 - - - - - - - 17.1 1016.0 0.0
18/01:30pm SW 23 29 - - - - - - - 17.1 1016.0 0.0
18/01:00pm SW 18 23 - - - - - - - 17.9 1016.4 0.0
18/12:30pm SW 16 21 - - - - - - - 17.6 1016.8 0.0
18/12:00pm WSW 17 21 - - - - - - - 17.2 1017.3 0.0
18/11:30am SW 17 21 - - - - - - - 17.6 1017.7 0.0
18/11:00am WSW 13 17 - - - - - - - 17.1 1018.0 0.0
18/10:30am SW 17 22 - - - - - - - 16.7 1018.3 0.0
18/10:00am SW 19 24 - - - - - - - 16.5 1018.6 0.0
18/09:30am WSW 16 20 - - - - - - - 16.4 1019.0 0.0
18/09:00am W 12 15 1 1.2 10 SE 25 Partly cloudy Fine 15.8 1019.2 0.0
18/08:30am W 13 17 - - - - - - - 15.1 1019.3 0.0
18/08:00am WSW 13 16 - - - - - - - 14.7 1019.2 0.0
18/07:30am W 10 13 - - - - - - - 14.5 1019.2 0.0
18/07:00am W 10 13 - - - - - - - 14.2 1019.3 0.0
18/06:30am W 9 13 - - - - - - - 14.1 1019.2 0.0
18/06:00am WNW 8 12 - - - - - - - 14.3 1019.2 0.0
18/05:30am WNW 8 11 - - - - - - - 14.3 1019.3 0.0
18/05:00am W 11 13 - - - - - - - 14.2 1019.3 0.0
18/04:30am WNW 10 14 - - - - - - - 14.2 1019.6 0.0
18/04:00am WNW 9 12 - - - - - - - 14.5 1019.6 0.0
18/03:30am WNW 7 9 - - - - - - - 14.7 1019.8 0.0
18/03:00am WNW 8 10 1 1.2 10 SE 25 Cloudy Fine 14.6 1020.1 0.0
18/02:30am W 9 10 - - - - - - - 14.8 1020.4 0.0
18/02:00am WNW 9 11 - - - - - - - 14.9 1021.1 0.0
18/01:30am WNW 7 9 - - - - - - - 14.9 1021.4 0.0
18/01:00am W 7 8 - - - - - - - 14.6 1021.7 0.0
18/12:30am WNW 8 9 - - - - - - - 14.6 1022.1 0.0
18/12:00am WNW 7 8 - - - - - - - 14.9 1022.3 0.0
 
Date/Time
EST
Wind Sea
Height
m
Swell Vis
km
Cloud Weather Temp
°C
Press
MSL
hPa
Rain since
9am
mm
Dir  Spd
kts
Gust
kts
Height
m
Period
s
Dir
17/11:30pm WNW 8 9 - - - - - - - 14.6 1022.4 0.0
17/11:00pm WNW 7 8 - - - - - - - 14.6 1022.8 0.0
17/10:30pm W 6 6 - - - - - - - 15.4 1023.2 0.0
17/10:00pm WNW 7 7 - - - - - - - 15.5 1023.5 0.0
17/09:30pm WNW 5 6 - - - - - - - 16.1 1023.5 0.0
17/09:00pm WNW 5 5 1 1.2 10 SE 30 Cloudy Fine 16.4 1023.5 0.0
17/08:30pm CALM 0 3 - - - - - - - 16.6 1023.4 0.0
17/08:00pm ESE 3 5 - - - - - - - 17.2 1023.4 0.0
17/07:30pm ESE 4 6 - - - - - - - 17.2 1023.5 0.0
17/07:00pm E 5 7 - - - - - - - 17.4 1023.5 0.0
17/06:30pm E 5 7 - - - - - - - 17.4 1023.7 0.0

Other formats

Comma delimited format used in spreadsheet applications
http://www.bom.gov.au/fwo/IDV60701/IDV60701.94933.axf

JavaScript Object Notation format (JSON) in row-major order
http://www.bom.gov.au/fwo/IDV60701/IDV60701.94933.json

Data quality

Most of these data are generated automatically and are frequently updated. Quality checks on data are not normally performed. It is possible for incorrect values to appear. Refer to information at About Latest Weather Observations and please check the disclaimer before using these data.